sensor_id;sensor_type;location;lat;lon;timestamp;temperature;humidity
10802;DHT22;5453;50.852;7.102;2024-02-04T00:00:54;10.80;99.90
10802;DHT22;5453;50.852;7.102;2024-02-04T00:03:28;10.80;99.90
10802;DHT22;5453;50.852;7.102;2024-02-04T00:06:00;10.80;99.90
10802;DHT22;5453;50.852;7.102;2024-02-04T00:08:36;10.80;99.90
10802;DHT22;5453;50.852;7.102;2024-02-04T00:11:08;10.70;99.90
10802;DHT22;5453;50.852;7.102;2024-02-04T00:13:42;10.70;99.90
10802;DHT22;5453;50.852;7.102;2024-02-04T00:16:15;10.70;99.90
10802;DHT22;5453;50.852;7.102;2024-02-04T00:18:49;10.70;99.90
10802;DHT22;5453;50.852;7.102;2024-02-04T00:21:21;10.70;99.90
10802;DHT22;5453;50.852;7.102;2024-02-04T00:23:54;10.60;99.90
10802;DHT22;5453;50.852;7.102;2024-02-04T00:26:26;10.60;99.90
10802;DHT22;5453;50.852;7.102;2024-02-04T00:28:58;10.60;99.90
10802;DHT22;5453;50.852;7.102;2024-02-04T00:31:31;10.60;99.90
10802;DHT22;5453;50.852;7.102;2024-02-04T00:34:05;10.70;99.90
10802;DHT22;5453;50.852;7.102;2024-02-04T00:36:37;10.70;99.90
10802;DHT22;5453;50.852;7.102;2024-02-04T00:39:09;10.70;99.90
10802;DHT22;5453;50.852;7.102;2024-02-04T00:41:42;10.60;99.90
10802;DHT22;5453;50.852;7.102;2024-02-04T00:44:14;10.70;99.90
10802;DHT22;5453;50.852;7.102;2024-02-04T00:46:47;10.70;99.90
10802;DHT22;5453;50.852;7.102;2024-02-04T00:49:20;10.60;99.90
10802;DHT22;5453;50.852;7.102;2024-02-04T00:51:53;10.70;99.90
10802;DHT22;5453;50.852;7.102;2024-02-04T00:54:25;10.70;99.90
10802;DHT22;5453;50.852;7.102;2024-02-04T00:56:58;10.70;99.90
10802;DHT22;5453;50.852;7.102;2024-02-04T00:59:31;10.70;99.90
10802;DHT22;5453;50.852;7.102;2024-02-04T01:02:03;10.70;99.90
10802;DHT22;5453;50.852;7.102;2024-02-04T01:04:40;10.70;99.90
10802;DHT22;5453;50.852;7.102;2024-02-04T01:07:12;10.70;99.90
10802;DHT22;5453;50.852;7.102;2024-02-04T01:09:44;10.70;99.90
10802;DHT22;5453;50.852;7.102;2024-02-04T01:12:17;10.60;99.90
10802;DHT22;5453;50.852;7.102;2024-02-04T01:14:49;10.60;99.90
10802;DHT22;5453;50.852;7.102;2024-02-04T01:17:22;10.60;99.90
10802;DHT22;5453;50.852;7.102;2024-02-04T01:19:55;10.60;99.90
10802;DHT22;5453;50.852;7.102;2024-02-04T01:22:28;10.60;99.90
10802;DHT22;5453;50.852;7.102;2024-02-04T01:25:00;10.60;99.90
10802;DHT22;5453;50.852;7.102;2024-02-04T01:27:33;10.60;99.90
10802;DHT22;5453;50.852;7.102;2024-02-04T01:30:06;10.60;99.90
10802;DHT22;5453;50.852;7.102;2024-02-04T01:32:43;10.60;99.90
10802;DHT22;5453;50.852;7.102;2024-02-04T01:35:17;10.60;99.90
10802;DHT22;5453;50.852;7.102;2024-02-04T01:37:50;10.60;99.90
10802;DHT22;5453;50.852;7.102;2024-02-04T01:40:24;10.50;99.90
10802;DHT22;5453;50.852;7.102;2024-02-04T01:42:57;10.60;99.90
10802;DHT22;5453;50.852;7.102;2024-02-04T01:45:29;10.60;99.90
10802;DHT22;5453;50.852;7.102;2024-02-04T01:48:01;10.50;99.90
10802;DHT22;5453;50.852;7.102;2024-02-04T01:50:36;10.60;99.90
10802;DHT22;5453;50.852;7.102;2024-02-04T01:53:08;10.60;99.90
10802;DHT22;5453;50.852;7.102;2024-02-04T01:55:41;10.60;99.90
10802;DHT22;5453;50.852;7.102;2024-02-04T01:58:14;10.60;99.90
10802;DHT22;5453;50.852;7.102;2024-02-04T02:00:46;10.60;99.90
10802;DHT22;5453;50.852;7.102;2024-02-04T02:03:21;10.60;99.90
10802;DHT22;5453;50.852;7.102;2024-02-04T02:05:56;10.60;99.90
10802;DHT22;5453;50.852;7.102;2024-02-04T02:08:28;10.60;99.90
10802;DHT22;5453;50.852;7.102;2024-02-04T02:11:05;10.60;99.90
10802;DHT22;5453;50.852;7.102;2024-02-04T02:13:41;10.60;99.90
10802;DHT22;5453;50.852;7.102;2024-02-04T02:16:19;10.60;99.90
10802;DHT22;5453;50.852;7.102;2024-02-04T02:19:00;10.60;99.90
10802;DHT22;5453;50.852;7.102;2024-02-04T02:21:47;10.60;99.90
10802;DHT22;5453;50.852;7.102;2024-02-04T02:24:34;10.60;99.90
10802;DHT22;5453;50.852;7.102;2024-02-04T02:27:06;10.50;99.90
10802;DHT22;5453;50.852;7.102;2024-02-04T02:29:38;10.60;99.90
10802;DHT22;5453;50.852;7.102;2024-02-04T02:32:11;10.60;99.90
10802;DHT22;5453;50.852;7.102;2024-02-04T02:34:43;10.60;99.90
10802;DHT22;5453;50.852;7.102;2024-02-04T02:37:29;10.50;99.90
10802;DHT22;5453;50.852;7.102;2024-02-04T02:40:12;10.60;99.90
10802;DHT22;5453;50.852;7.102;2024-02-04T02:42:52;10.60;99.90
10802;DHT22;5453;50.852;7.102;2024-02-04T02:45:26;10.60;99.90
10802;DHT22;5453;50.852;7.102;2024-02-04T02:47:59;10.60;99.90
10802;DHT22;5453;50.852;7.102;2024-02-04T02:50:32;10.60;99.90
10802;DHT22;5453;50.852;7.102;2024-02-04T02:53:05;10.70;99.90
10802;DHT22;5453;50.852;7.102;2024-02-04T02:55:39;10.70;99.90
10802;DHT22;5453;50.852;7.102;2024-02-04T02:58:12;10.70;99.90
10802;DHT22;5453;50.852;7.102;2024-02-04T03:00:44;10.70;99.90
10802;DHT22;5453;50.852;7.102;2024-02-04T03:03:17;10.70;99.90
10802;DHT22;5453;50.852;7.102;2024-02-04T03:05:50;10.70;99.90
10802;DHT22;5453;50.852;7.102;2024-02-04T03:08:22;10.70;99.90
10802;DHT22;5453;50.852;7.102;2024-02-04T03:10:56;10.80;99.90
10802;DHT22;5453;50.852;7.102;2024-02-04T03:13:28;10.80;99.90
10802;DHT22;5453;50.852;7.102;2024-02-04T03:16:01;10.70;99.90
10802;DHT22;5453;50.852;7.102;2024-02-04T03:18:33;10.80;99.90
10802;DHT22;5453;50.852;7.102;2024-02-04T03:21:12;10.80;99.90
10802;DHT22;5453;50.852;7.102;2024-02-04T03:23:44;10.70;99.90
10802;DHT22;5453;50.852;7.102;2024-02-04T03:26:18;10.70;99.90
10802;DHT22;5453;50.852;7.102;2024-02-04T03:28:52;10.80;99.90
10802;DHT22;5453;50.852;7.102;2024-02-04T03:31:24;10.70;99.90
10802;DHT22;5453;50.852;7.102;2024-02-04T03:33:57;10.80;99.90
10802;DHT22;5453;50.852;7.102;2024-02-04T03:36:30;10.70;99.90
10802;DHT22;5453;50.852;7.102;2024-02-04T03:39:06;10.80;99.90
10802;DHT22;5453;50.852;7.102;2024-02-04T03:41:40;10.80;99.90
10802;DHT22;5453;50.852;7.102;2024-02-04T03:44:12;10.80;99.90
10802;DHT22;5453;50.852;7.102;2024-02-04T03:46:48;10.80;99.90
10802;DHT22;5453;50.852;7.102;2024-02-04T03:49:21;10.80;99.90
10802;DHT22;5453;50.852;7.102;2024-02-04T03:51:53;10.80;99.90
10802;DHT22;5453;50.852;7.102;2024-02-04T03:54:26;10.80;99.90
10802;DHT22;5453;50.852;7.102;2024-02-04T03:56:59;10.80;99.90
10802;DHT22;5453;50.852;7.102;2024-02-04T03:59:32;10.80;99.90
10802;DHT22;5453;50.852;7.102;2024-02-04T04:02:04;10.80;99.90
10802;DHT22;5453;50.852;7.102;2024-02-04T04:04:39;10.80;99.90
10802;DHT22;5453;50.852;7.102;2024-02-04T04:07:12;10.80;99.90
10802;DHT22;5453;50.852;7.102;2024-02-04T04:09:44;10.90;99.90
10802;DHT22;5453;50.852;7.102;2024-02-04T04:12:18;10.90;99.90
10802;DHT22;5453;50.852;7.102;2024-02-04T04:14:51;10.90;99.90
10802;DHT22;5453;50.852;7.102;2024-02-04T04:17:23;10.90;99.90
10802;DHT22;5453;50.852;7.102;2024-02-04T04:19:56;10.90;99.90
10802;DHT22;5453;50.852;7.102;2024-02-04T04:22:28;10.90;99.90
10802;DHT22;5453;50.852;7.102;2024-02-04T04:25:00;11.00;99.90
10802;DHT22;5453;50.852;7.102;2024-02-04T04:27:34;10.90;99.90
10802;DHT22;5453;50.852;7.102;2024-02-04T04:30:07;10.90;99.90
10802;DHT22;5453;50.852;7.102;2024-02-04T04:32:40;10.90;99.90
10802;DHT22;5453;50.852;7.102;2024-02-04T04:35:12;11.00;99.90
10802;DHT22;5453;50.852;7.102;2024-02-04T04:37:45;10.90;99.90
10802;DHT22;5453;50.852;7.102;2024-02-04T04:40:17;10.90;99.90
10802;DHT22;5453;50.852;7.102;2024-02-04T04:42:51;10.90;99.90
10802;DHT22;5453;50.852;7.102;2024-02-04T04:45:26;10.90;99.90
10802;DHT22;5453;50.852;7.102;2024-02-04T04:47:59;10.90;99.90
10802;DHT22;5453;50.852;7.102;2024-02-04T04:50:31;11.00;99.90
10802;DHT22;5453;50.852;7.102;2024-02-04T04:53:03;11.00;99.90
10802;DHT22;5453;50.852;7.102;2024-02-04T04:55:36;10.90;99.90
10802;DHT22;5453;50.852;7.102;2024-02-04T04:58:10;10.90;99.90
10802;DHT22;5453;50.852;7.102;2024-02-04T05:00:42;10.90;99.90
10802;DHT22;5453;50.852;7.102;2024-02-04T05:03:14;10.90;99.90
10802;DHT22;5453;50.852;7.102;2024-02-04T05:05:47;10.90;99.90
10802;DHT22;5453;50.852;7.102;2024-02-04T05:08:19;11.00;99.90
10802;DHT22;5453;50.852;7.102;2024-02-04T05:10:51;10.90;99.90
10802;DHT22;5453;50.852;7.102;2024-02-04T05:13:25;10.90;99.90
10802;DHT22;5453;50.852;7.102;2024-02-04T05:15:57;11.00;99.90
10802;DHT22;5453;50.852;7.102;2024-02-04T05:18:30;11.00;99.90
10802;DHT22;5453;50.852;7.102;2024-02-04T05:21:03;11.00;99.90
10802;DHT22;5453;50.852;7.102;2024-02-04T05:23:36;11.00;99.90
10802;DHT22;5453;50.852;7.102;2024-02-04T05:26:09;11.00;99.90
10802;DHT22;5453;50.852;7.102;2024-02-04T05:28:45;11.00;99.90
10802;DHT22;5453;50.852;7.102;2024-02-04T05:31:18;11.00;99.90
10802;DHT22;5453;50.852;7.102;2024-02-04T05:33:52;11.00;99.90
10802;DHT22;5453;50.852;7.102;2024-02-04T05:36:24;11.00;99.90
10802;DHT22;5453;50.852;7.102;2024-02-04T05:38:57;11.00;99.90
10802;DHT22;5453;50.852;7.102;2024-02-04T05:41:30;11.00;99.90
10802;DHT22;5453;50.852;7.102;2024-02-04T05:44:04;11.00;99.90
10802;DHT22;5453;50.852;7.102;2024-02-04T05:46:36;11.00;99.90
10802;DHT22;5453;50.852;7.102;2024-02-04T05:49:09;11.00;99.90
10802;DHT22;5453;50.852;7.102;2024-02-04T05:51:43;11.00;99.90
10802;DHT22;5453;50.852;7.102;2024-02-04T05:54:16;11.00;99.90
10802;DHT22;5453;50.852;7.102;2024-02-04T05:56:48;11.00;99.90
10802;DHT22;5453;50.852;7.102;2024-02-04T05:59:25;11.00;99.90
10802;DHT22;5453;50.852;7.102;2024-02-04T06:01:57;11.00;99.90
10802;DHT22;5453;50.852;7.102;2024-02-04T06:04:30;11.00;99.90
10802;DHT22;5453;50.852;7.102;2024-02-04T06:07:03;11.00;99.90
10802;DHT22;5453;50.852;7.102;2024-02-04T06:09:39;11.00;99.90
10802;DHT22;5453;50.852;7.102;2024-02-04T06:12:11;11.00;99.90
10802;DHT22;5453;50.852;7.102;2024-02-04T06:14:45;11.00;99.90
10802;DHT22;5453;50.852;7.102;2024-02-04T06:17:17;11.00;99.90
10802;DHT22;5453;50.852;7.102;2024-02-04T06:19:50;11.00;99.90
10802;DHT22;5453;50.852;7.102;2024-02-04T06:22:22;11.00;99.90
10802;DHT22;5453;50.852;7.102;2024-02-04T06:24:55;11.00;99.90
10802;DHT22;5453;50.852;7.102;2024-02-04T06:27:31;11.00;99.90
10802;DHT22;5453;50.852;7.102;2024-02-04T06:30:06;11.00;99.90
10802;DHT22;5453;50.852;7.102;2024-02-04T06:32:38;11.10;99.90
10802;DHT22;5453;50.852;7.102;2024-02-04T06:35:11;11.10;99.90
10802;DHT22;5453;50.852;7.102;2024-02-04T06:37:43;11.10;99.90
10802;DHT22;5453;50.852;7.102;2024-02-04T06:40:15;11.00;99.90
10802;DHT22;5453;50.852;7.102;2024-02-04T06:42:48;11.10;99.90
10802;DHT22;5453;50.852;7.102;2024-02-04T06:45:22;11.00;99.90
10802;DHT22;5453;50.852;7.102;2024-02-04T06:47:54;11.10;99.90
10802;DHT22;5453;50.852;7.102;2024-02-04T06:50:26;11.10;99.90
10802;DHT22;5453;50.852;7.102;2024-02-04T06:52:59;11.00;99.90
10802;DHT22;5453;50.852;7.102;2024-02-04T06:55:34;11.10;99.90
10802;DHT22;5453;50.852;7.102;2024-02-04T06:58:07;11.10;99.90
10802;DHT22;5453;50.852;7.102;2024-02-04T07:00:41;11.10;99.90
10802;DHT22;5453;50.852;7.102;2024-02-04T07:03:13;11.10;99.90
10802;DHT22;5453;50.852;7.102;2024-02-04T07:05:45;11.10;99.90
10802;DHT22;5453;50.852;7.102;2024-02-04T07:08:18;11.10;99.90
10802;DHT22;5453;50.852;7.102;2024-02-04T07:10:51;11.10;99.90
10802;DHT22;5453;50.852;7.102;2024-02-04T07:13:23;11.10;99.90
10802;DHT22;5453;50.852;7.102;2024-02-04T07:15:57;11.10;99.90
10802;DHT22;5453;50.852;7.102;2024-02-04T07:18:30;11.10;99.90
10802;DHT22;5453;50.852;7.102;2024-02-04T07:21:03;11.10;99.90
10802;DHT22;5453;50.852;7.102;2024-02-04T07:23:35;11.10;99.90
10802;DHT22;5453;50.852;7.102;2024-02-04T07:26:08;11.10;99.90
10802;DHT22;5453;50.852;7.102;2024-02-04T07:28:40;11.10;99.90
10802;DHT22;5453;50.852;7.102;2024-02-04T07:31:14;11.00;99.90
10802;DHT22;5453;50.852;7.102;2024-02-04T07:33:49;11.10;99.90
10802;DHT22;5453;50.852;7.102;2024-02-04T07:36:21;11.10;99.90
10802;DHT22;5453;50.852;7.102;2024-02-04T07:38:54;11.00;99.90
10802;DHT22;5453;50.852;7.102;2024-02-04T07:41:26;11.00;99.90
10802;DHT22;5453;50.852;7.102;2024-02-04T07:43:59;11.00;99.90
10802;DHT22;5453;50.852;7.102;2024-02-04T07:46:32;11.00;99.90
10802;DHT22;5453;50.852;7.102;2024-02-04T07:49:05;11.00;99.90
10802;DHT22;5453;50.852;7.102;2024-02-04T07:51:38;11.00;99.90
10802;DHT22;5453;50.852;7.102;2024-02-04T07:54:10;11.10;99.90
10802;DHT22;5453;50.852;7.102;2024-02-04T07:56:43;11.00;99.90
10802;DHT22;5453;50.852;7.102;2024-02-04T07:59:15;11.10;99.90
10802;DHT22;5453;50.852;7.102;2024-02-04T08:01:52;11.10;99.90
10802;DHT22;5453;50.852;7.102;2024-02-04T08:04:24;11.10;99.90
10802;DHT22;5453;50.852;7.102;2024-02-04T08:06:57;11.10;99.90
10802;DHT22;5453;50.852;7.102;2024-02-04T08:09:32;11.10;99.90
10802;DHT22;5453;50.852;7.102;2024-02-04T08:12:05;11.10;99.90
10802;DHT22;5453;50.852;7.102;2024-02-04T08:14:38;11.10;99.90
10802;DHT22;5453;50.852;7.102;2024-02-04T08:17:13;11.10;99.90
10802;DHT22;5453;50.852;7.102;2024-02-04T08:19:45;11.20;99.90
10802;DHT22;5453;50.852;7.102;2024-02-04T08:22:18;11.20;99.90
10802;DHT22;5453;50.852;7.102;2024-02-04T08:24:50;11.20;99.90
10802;DHT22;5453;50.852;7.102;2024-02-04T08:27:22;11.30;99.90
10802;DHT22;5453;50.852;7.102;2024-02-04T08:29:55;11.40;99.90
10802;DHT22;5453;50.852;7.102;2024-02-04T08:32:29;11.40;99.90
10802;DHT22;5453;50.852;7.102;2024-02-04T08:35:01;11.40;99.90
10802;DHT22;5453;50.852;7.102;2024-02-04T08:37:33;11.40;99.90
10802;DHT22;5453;50.852;7.102;2024-02-04T08:40:11;11.40;99.90
10802;DHT22;5453;50.852;7.102;2024-02-04T08:42:44;11.50;99.90
10802;DHT22;5453;50.852;7.102;2024-02-04T08:45:16;11.40;99.90
10802;DHT22;5453;50.852;7.102;2024-02-04T08:47:50;11.50;99.90
10802;DHT22;5453;50.852;7.102;2024-02-04T08:50:22;11.50;99.90
10802;DHT22;5453;50.852;7.102;2024-02-04T08:52:55;11.50;99.90
10802;DHT22;5453;50.852;7.102;2024-02-04T08:55:27;11.50;99.90
10802;DHT22;5453;50.852;7.102;2024-02-04T08:58:00;11.50;99.90
10802;DHT22;5453;50.852;7.102;2024-02-04T09:00:32;11.50;99.90
10802;DHT22;5453;50.852;7.102;2024-02-04T09:03:06;11.40;99.90
10802;DHT22;5453;50.852;7.102;2024-02-04T09:05:38;11.50;99.90
10802;DHT22;5453;50.852;7.102;2024-02-04T09:08:11;11.40;99.90
10802;DHT22;5453;50.852;7.102;2024-02-04T09:10:43;11.40;99.90
10802;DHT22;5453;50.852;7.102;2024-02-04T09:13:16;11.40;99.90
10802;DHT22;5453;50.852;7.102;2024-02-04T09:15:50;11.50;99.90
10802;DHT22;5453;50.852;7.102;2024-02-04T09:18:25;11.50;99.90
10802;DHT22;5453;50.852;7.102;2024-02-04T09:20:57;11.50;99.90
10802;DHT22;5453;50.852;7.102;2024-02-04T09:23:29;11.50;99.90
10802;DHT22;5453;50.852;7.102;2024-02-04T09:26:05;11.60;99.90
10802;DHT22;5453;50.852;7.102;2024-02-04T09:28:37;11.60;99.90
10802;DHT22;5453;50.852;7.102;2024-02-04T09:31:10;11.60;99.90
10802;DHT22;5453;50.852;7.102;2024-02-04T09:33:47;11.60;99.90
10802;DHT22;5453;50.852;7.102;2024-02-04T09:36:19;11.60;99.90
10802;DHT22;5453;50.852;7.102;2024-02-04T09:38:53;11.60;99.90
10802;DHT22;5453;50.852;7.102;2024-02-04T09:41:26;11.60;99.90
10802;DHT22;5453;50.852;7.102;2024-02-04T09:44:02;11.60;99.90
10802;DHT22;5453;50.852;7.102;2024-02-04T09:46:36;11.60;99.90
10802;DHT22;5453;50.852;7.102;2024-02-04T09:49:11;11.70;99.90
10802;DHT22;5453;50.852;7.102;2024-02-04T09:51:44;11.70;99.90
10802;DHT22;5453;50.852;7.102;2024-02-04T09:54:18;11.60;99.90
10802;DHT22;5453;50.852;7.102;2024-02-04T09:56:53;11.70;99.90
10802;DHT22;5453;50.852;7.102;2024-02-04T09:59:25;11.60;99.90
10802;DHT22;5453;50.852;7.102;2024-02-04T10:01:58;11.70;99.90
10802;DHT22;5453;50.852;7.102;2024-02-04T10:04:32;11.60;99.90
10802;DHT22;5453;50.852;7.102;2024-02-04T10:07:05;11.70;99.90
10802;DHT22;5453;50.852;7.102;2024-02-04T10:09:37;11.70;99.90
10802;DHT22;5453;50.852;7.102;2024-02-04T10:12:10;11.70;99.90
10802;DHT22;5453;50.852;7.102;2024-02-04T10:14:42;11.70;99.90
10802;DHT22;5453;50.852;7.102;2024-02-04T10:17:15;11.70;99.90
10802;DHT22;5453;50.852;7.102;2024-02-04T10:19:52;11.70;99.90
10802;DHT22;5453;50.852;7.102;2024-02-04T10:22:26;11.70;99.90
10802;DHT22;5453;50.852;7.102;2024-02-04T10:25:09;11.80;99.90
10802;DHT22;5453;50.852;7.102;2024-02-04T10:27:43;11.70;99.90
10802;DHT22;5453;50.852;7.102;2024-02-04T10:30:19;11.80;99.90
10802;DHT22;5453;50.852;7.102;2024-02-04T10:32:52;11.80;99.90
10802;DHT22;5453;50.852;7.102;2024-02-04T10:35:26;11.80;99.90
10802;DHT22;5453;50.852;7.102;2024-02-04T10:37:58;11.80;99.90
10802;DHT22;5453;50.852;7.102;2024-02-04T10:40:31;11.80;99.90
10802;DHT22;5453;50.852;7.102;2024-02-04T10:43:04;11.80;99.90
10802;DHT22;5453;50.852;7.102;2024-02-04T10:45:39;11.80;99.90
10802;DHT22;5453;50.852;7.102;2024-02-04T10:48:19;11.80;99.90
10802;DHT22;5453;50.852;7.102;2024-02-04T10:50:55;11.80;99.90
10802;DHT22;5453;50.852;7.102;2024-02-04T10:53:30;11.80;99.90
10802;DHT22;5453;50.852;7.102;2024-02-04T10:56:03;11.80;99.90
10802;DHT22;5453;50.852;7.102;2024-02-04T10:58:39;11.80;99.90
10802;DHT22;5453;50.852;7.102;2024-02-04T11:01:12;11.90;99.90
10802;DHT22;5453;50.852;7.102;2024-02-04T11:03:45;11.90;99.90
10802;DHT22;5453;50.852;7.102;2024-02-04T11:06:20;12.00;99.90
10802;DHT22;5453;50.852;7.102;2024-02-04T11:08:53;11.90;99.90
10802;DHT22;5453;50.852;7.102;2024-02-04T11:11:25;11.90;99.90
10802;DHT22;5453;50.852;7.102;2024-02-04T11:14:01;11.90;99.90
10802;DHT22;5453;50.852;7.102;2024-02-04T11:16:57;11.90;99.90
10802;DHT22;5453;50.852;7.102;2024-02-04T11:19:56;11.90;99.90
10802;DHT22;5453;50.852;7.102;2024-02-04T11:22:55;12.00;99.90
10802;DHT22;5453;50.852;7.102;2024-02-04T11:25:44;12.00;99.90
10802;DHT22;5453;50.852;7.102;2024-02-04T11:28:20;12.00;99.90
10802;DHT22;5453;50.852;7.102;2024-02-04T11:30:55;11.90;99.90
10802;DHT22;5453;50.852;7.102;2024-02-04T11:33:27;11.90;99.90
10802;DHT22;5453;50.852;7.102;2024-02-04T11:36:03;11.90;99.90
10802;DHT22;5453;50.852;7.102;2024-02-04T11:38:37;11.90;99.90
10802;DHT22;5453;50.852;7.102;2024-02-04T11:41:10;11.90;99.90
10802;DHT22;5453;50.852;7.102;2024-02-04T11:43:45;11.80;99.90
10802;DHT22;5453;50.852;7.102;2024-02-04T11:46:18;11.90;99.90
10802;DHT22;5453;50.852;7.102;2024-02-04T11:48:54;11.90;99.90
10802;DHT22;5453;50.852;7.102;2024-02-04T11:51:26;11.90;99.90
10802;DHT22;5453;50.852;7.102;2024-02-04T11:54:00;11.90;99.90
10802;DHT22;5453;50.852;7.102;2024-02-04T11:56:35;12.00;99.90
10802;DHT22;5453;50.852;7.102;2024-02-04T11:59:08;11.90;99.90
10802;DHT22;5453;50.852;7.102;2024-02-04T12:01:40;12.00;99.90
10802;DHT22;5453;50.852;7.102;2024-02-04T12:04:15;12.00;99.90
10802;DHT22;5453;50.852;7.102;2024-02-04T12:06:48;12.00;99.90
10802;DHT22;5453;50.852;7.102;2024-02-04T12:09:22;12.10;99.90
10802;DHT22;5453;50.852;7.102;2024-02-04T12:11:55;12.10;99.90
10802;DHT22;5453;50.852;7.102;2024-02-04T12:14:27;12.10;99.90
10802;DHT22;5453;50.852;7.102;2024-02-04T12:17:06;12.20;99.90
10802;DHT22;5453;50.852;7.102;2024-02-04T12:19:40;12.20;99.90
10802;DHT22;5453;50.852;7.102;2024-02-04T12:22:13;12.30;99.90
10802;DHT22;5453;50.852;7.102;2024-02-04T12:24:47;12.30;99.90
10802;DHT22;5453;50.852;7.102;2024-02-04T12:27:20;12.30;99.90
10802;DHT22;5453;50.852;7.102;2024-02-04T12:29:53;12.20;99.90
10802;DHT22;5453;50.852;7.102;2024-02-04T12:32:25;12.20;99.90
10802;DHT22;5453;50.852;7.102;2024-02-04T12:34:58;12.20;99.90
10802;DHT22;5453;50.852;7.102;2024-02-04T12:37:31;12.20;99.90
10802;DHT22;5453;50.852;7.102;2024-02-04T12:40:07;12.20;99.90
10802;DHT22;5453;50.852;7.102;2024-02-04T12:42:42;12.20;99.90
10802;DHT22;5453;50.852;7.102;2024-02-04T12:45:15;12.20;99.90
10802;DHT22;5453;50.852;7.102;2024-02-04T12:47:50;12.20;99.90
10802;DHT22;5453;50.852;7.102;2024-02-04T12:50:23;12.20;99.90
10802;DHT22;5453;50.852;7.102;2024-02-04T12:53:03;12.20;99.90
10802;DHT22;5453;50.852;7.102;2024-02-04T12:55:38;12.20;99.90
10802;DHT22;5453;50.852;7.102;2024-02-04T12:58:11;12.20;99.90
10802;DHT22;5453;50.852;7.102;2024-02-04T13:00:47;12.20;99.90
10802;DHT22;5453;50.852;7.102;2024-02-04T13:03:20;12.20;99.90
10802;DHT22;5453;50.852;7.102;2024-02-04T13:05:57;12.20;99.90
10802;DHT22;5453;50.852;7.102;2024-02-04T13:08:30;12.20;99.90
10802;DHT22;5453;50.852;7.102;2024-02-04T13:11:04;12.20;99.90
10802;DHT22;5453;50.852;7.102;2024-02-04T13:13:36;12.20;99.90
10802;DHT22;5453;50.852;7.102;2024-02-04T13:16:09;12.10;99.90
10802;DHT22;5453;50.852;7.102;2024-02-04T13:18:41;12.20;99.90
10802;DHT22;5453;50.852;7.102;2024-02-04T13:21:13;12.10;99.90
10802;DHT22;5453;50.852;7.102;2024-02-04T13:23:50;12.10;99.90
10802;DHT22;5453;50.852;7.102;2024-02-04T13:26:24;12.10;99.90
10802;DHT22;5453;50.852;7.102;2024-02-04T13:28:57;12.10;99.90
10802;DHT22;5453;50.852;7.102;2024-02-04T13:31:29;12.10;99.90
10802;DHT22;5453;50.852;7.102;2024-02-04T13:34:01;12.10;99.90
10802;DHT22;5453;50.852;7.102;2024-02-04T13:36:35;12.10;99.90
10802;DHT22;5453;50.852;7.102;2024-02-04T13:39:07;12.00;99.90
10802;DHT22;5453;50.852;7.102;2024-02-04T13:41:41;12.00;99.90
10802;DHT22;5453;50.852;7.102;2024-02-04T13:44:16;12.00;99.90
10802;DHT22;5453;50.852;7.102;2024-02-04T13:46:49;12.00;99.90
10802;DHT22;5453;50.852;7.102;2024-02-04T13:49:21;12.00;99.90
10802;DHT22;5453;50.852;7.102;2024-02-04T13:51:54;12.00;99.90
10802;DHT22;5453;50.852;7.102;2024-02-04T13:54:29;12.00;99.90
10802;DHT22;5453;50.852;7.102;2024-02-04T13:57:03;12.00;99.90
10802;DHT22;5453;50.852;7.102;2024-02-04T13:59:36;12.00;99.90
10802;DHT22;5453;50.852;7.102;2024-02-04T14:02:09;12.00;99.90
10802;DHT22;5453;50.852;7.102;2024-02-04T14:04:41;12.00;99.90
10802;DHT22;5453;50.852;7.102;2024-02-04T14:07:14;12.00;99.90
10802;DHT22;5453;50.852;7.102;2024-02-04T14:09:46;12.00;99.90
10802;DHT22;5453;50.852;7.102;2024-02-04T14:12:20;12.10;99.90
10802;DHT22;5453;50.852;7.102;2024-02-04T14:14:52;12.00;99.90
10802;DHT22;5453;50.852;7.102;2024-02-04T14:17:24;12.00;99.90
10802;DHT22;5453;50.852;7.102;2024-02-04T14:19:57;11.90;99.90
10802;DHT22;5453;50.852;7.102;2024-02-04T14:22:29;11.90;99.90
10802;DHT22;5453;50.852;7.102;2024-02-04T14:25:02;11.80;99.90
10802;DHT22;5453;50.852;7.102;2024-02-04T14:27:36;11.70;99.90
10802;DHT22;5453;50.852;7.102;2024-02-04T14:30:09;11.70;99.90
10802;DHT22;5453;50.852;7.102;2024-02-04T14:32:42;11.70;99.90
10802;DHT22;5453;50.852;7.102;2024-02-04T14:35:15;11.70;99.90
10802;DHT22;5453;50.852;7.102;2024-02-04T14:37:47;11.70;99.90
10802;DHT22;5453;50.852;7.102;2024-02-04T14:40:23;11.70;99.90
10802;DHT22;5453;50.852;7.102;2024-02-04T14:42:56;11.70;99.90
10802;DHT22;5453;50.852;7.102;2024-02-04T14:45:29;11.80;99.90
10802;DHT22;5453;50.852;7.102;2024-02-04T14:48:01;11.80;99.90
10802;DHT22;5453;50.852;7.102;2024-02-04T14:50:34;11.80;99.90
10802;DHT22;5453;50.852;7.102;2024-02-04T14:53:06;11.80;99.90
10802;DHT22;5453;50.852;7.102;2024-02-04T14:55:39;11.80;99.90
10802;DHT22;5453;50.852;7.102;2024-02-04T14:58:12;11.80;99.90
10802;DHT22;5453;50.852;7.102;2024-02-04T15:00:45;11.80;99.90
10802;DHT22;5453;50.852;7.102;2024-02-04T15:03:16;11.70;99.90
10802;DHT22;5453;50.852;7.102;2024-02-04T15:05:48;11.80;99.90
10802;DHT22;5453;50.852;7.102;2024-02-04T15:08:24;11.80;99.90
10802;DHT22;5453;50.852;7.102;2024-02-04T15:10:56;11.70;99.90
10802;DHT22;5453;50.852;7.102;2024-02-04T15:13:30;11.70;99.90
10802;DHT22;5453;50.852;7.102;2024-02-04T15:16:03;11.70;99.90
10802;DHT22;5453;50.852;7.102;2024-02-04T15:18:41;11.60;99.90
10802;DHT22;5453;50.852;7.102;2024-02-04T15:21:14;11.60;99.90
10802;DHT22;5453;50.852;7.102;2024-02-04T15:23:48;11.50;99.90
10802;DHT22;5453;50.852;7.102;2024-02-04T15:26:23;11.50;99.90
10802;DHT22;5453;50.852;7.102;2024-02-04T15:29:00;11.40;99.90
10802;DHT22;5453;50.852;7.102;2024-02-04T15:31:34;11.50;99.90
10802;DHT22;5453;50.852;7.102;2024-02-04T15:34:07;11.40;99.90
10802;DHT22;5453;50.852;7.102;2024-02-04T15:36:40;11.40;99.90
10802;DHT22;5453;50.852;7.102;2024-02-04T15:39:13;11.40;99.90
10802;DHT22;5453;50.852;7.102;2024-02-04T15:41:46;11.40;99.90
10802;DHT22;5453;50.852;7.102;2024-02-04T15:44:20;11.30;99.90
10802;DHT22;5453;50.852;7.102;2024-02-04T15:46:53;11.30;99.90
10802;DHT22;5453;50.852;7.102;2024-02-04T15:49:26;11.30;99.90
10802;DHT22;5453;50.852;7.102;2024-02-04T15:52:00;11.30;99.90
10802;DHT22;5453;50.852;7.102;2024-02-04T15:54:33;11.20;99.90
10802;DHT22;5453;50.852;7.102;2024-02-04T15:57:07;11.20;99.90
10802;DHT22;5453;50.852;7.102;2024-02-04T15:59:48;11.20;99.90
10802;DHT22;5453;50.852;7.102;2024-02-04T16:02:22;11.20;99.90
10802;DHT22;5453;50.852;7.102;2024-02-04T16:04:55;11.20;99.90
10802;DHT22;5453;50.852;7.102;2024-02-04T16:07:27;11.20;99.90
10802;DHT22;5453;50.852;7.102;2024-02-04T16:10:00;11.20;99.90
10802;DHT22;5453;50.852;7.102;2024-02-04T16:12:36;11.20;99.90
10802;DHT22;5453;50.852;7.102;2024-02-04T16:15:12;11.20;99.90
10802;DHT22;5453;50.852;7.102;2024-02-04T16:17:44;11.20;99.90
10802;DHT22;5453;50.852;7.102;2024-02-04T16:20:17;11.20;99.90
10802;DHT22;5453;50.852;7.102;2024-02-04T16:22:53;11.30;99.90
10802;DHT22;5453;50.852;7.102;2024-02-04T16:25:25;11.20;99.90